Terminal Aerodrome Forecast
Issued by NWS Charleston, WV

Current Version | Previous Version | Graphics & Text | Print | Product List | Glossary On
Versions: 1 2 3 4 5 6 7 8 9 10 11 12 13 14 15 16 17 18 19 20 21 22 23 24 25 26 27 28 29 30 31
046
FTUS41 KRLX 252338
TAFEKN
TAF
KEKN 252338Z 2600/2624 21003KT P6SM BKN035
     FM260500 00000KT 5SM BR SCT045
     FM260800 00000KT 1/2SM FG SCT001
     FM261300 00000KT 4SM BR SCT030
     FM261400 VRB03KT P6SM SCT030=

USA.gov is the U.S. government's official web portal to all federal, state and local government web resources and services.